Time;durP1;ratioP1;P1;durP2;ratioP2;P2;SDS_P1;SDS_P2;PMS_P1;PMS_P2;Temp;Humidity;BMP_temperature;BMP_pressure;BME280_temperature;BME280_humidity;BME280_pressure;Samples;Min_cycle;Max_cycle;Signal;HPM_P1;HPM_P2
2022/04/03 00:00:06;;;;;;;4.25;1.83;;;4.70;99.90;;;;;;4142736;28;20061;-64
2022/04/03 00:02:07;;;;;;;3.20;1.95;;;4.70;99.90;;;;;;4140704;28;20540;-63
2022/04/03 00:04:07;;;;;;;2.00;1.50;;;4.70;99.90;;;;;;4147991;28;20050;-63
2022/04/03 00:06:08;;;;;;;4.22;1.92;;;4.70;99.90;;;;;;4148649;28;20041;-63
2022/04/03 00:08:09;;;;;;;2.38;1.60;;;4.70;99.90;;;;;;4146604;28;20584;-63
2022/04/03 00:10:10;;;;;;;3.05;1.88;;;4.70;99.90;;;;;;4150205;28;20112;-63
2022/04/03 00:12:10;;;;;;;3.50;1.92;;;4.70;99.90;;;;;;4147239;28;20029;-63
2022/04/03 00:14:11;;;;;;;3.22;1.55;;;4.70;99.90;;;;;;4150528;28;20041;-63
2022/04/03 00:16:12;;;;;;;4.07;2.40;;;4.70;99.90;;;;;;4149491;28;20429;-63
2022/04/03 00:18:12;;;;;;;2.55;1.70;;;4.70;99.90;;;;;;4147845;28;20045;-63
2022/04/03 00:20:14;;;;;;;2.65;1.55;;;4.70;99.90;;;;;;4147324;28;20104;-63
2022/04/03 00:22:15;;;;;;;2.28;1.63;;;4.70;99.90;;;;;;4147339;28;20117;-63
2022/04/03 00:24:17;;;;;;;3.30;1.73;;;4.70;99.90;;;;;;4103535;28;1166563;-63
2022/04/03 00:26:17;;;;;;;2.92;1.83;;;4.70;99.90;;;;;;4148993;28;20497;-63
2022/04/03 00:28:19;;;;;;;4.22;1.92;;;4.70;99.90;;;;;;4146715;28;20038;-63
2022/04/03 00:30:19;;;;;;;2.53;1.60;;;4.60;99.90;;;;;;4148588;28;20115;-64
2022/04/03 00:32:20;;;;;;;2.75;1.95;;;4.60;99.90;;;;;;4146890;28;20129;-63
2022/04/03 00:34:21;;;;;;;4.55;2.10;;;4.60;99.90;;;;;;4150394;28;20030;-63
2022/04/03 00:36:21;;;;;;;1.92;1.60;;;4.60;99.90;;;;;;4148311;28;20052;-63
2022/04/03 00:38:22;;;;;;;2.95;1.73;;;4.60;99.90;;;;;;4149839;28;20037;-63
2022/04/03 00:40:26;;;;;;;4.13;2.00;;;4.60;99.90;;;;;;4147997;28;20045;-63
2022/04/03 00:42:27;;;;;;;3.75;1.88;;;4.60;99.90;;;;;;4146853;28;20042;-64
2022/04/03 00:44:28;;;;;;;2.83;1.77;;;4.50;99.90;;;;;;4148719;28;20081;-63
2022/04/03 00:46:29;;;;;;;2.53;1.65;;;4.60;99.90;;;;;;4151942;28;20095;-63
2022/04/03 00:48:31;;;;;;;3.70;1.90;;;4.50;99.90;;;;;;4146962;28;20497;-67
2022/04/03 00:50:31;;;;;;;2.85;1.88;;;4.60;99.90;;;;;;4151152;28;20120;-64
2022/04/03 00:52:32;;;;;;;3.47;1.92;;;4.50;99.90;;;;;;4150795;28;20041;-64
2022/04/03 00:54:33;;;;;;;4.10;1.95;;;4.50;99.90;;;;;;4147587;28;20042;-63
2022/04/03 00:56:33;;;;;;;2.72;1.63;;;4.50;99.90;;;;;;4147279;28;20037;-64
2022/04/03 00:58:37;;;;;;;6.00;2.22;;;4.50;99.90;;;;;;4149382;28;20419;-63
2022/04/03 01:00:39;;;;;;;2.17;1.75;;;4.40;99.90;;;;;;4149946;28;20034;-63
2022/04/03 01:02:41;;;;;;;3.28;1.80;;;4.40;99.90;;;;;;4147619;28;20022;-63
2022/04/03 01:04:41;;;;;;;2.60;1.67;;;4.50;99.90;;;;;;4147326;28;20064;-63
2022/04/03 01:06:42;;;;;;;2.42;1.50;;;4.40;99.90;;;;;;4147992;28;20476;-63
2022/04/03 01:08:43;;;;;;;3.70;1.73;;;4.40;99.90;;;;;;4151783;28;20121;-63
2022/04/03 01:10:43;;;;;;;2.53;1.55;;;4.40;99.90;;;;;;4146624;28;20416;-63
2022/04/03 01:12:47;;;;;;;5.40;2.28;;;4.40;99.90;;;;;;4150366;28;20355;-63
2022/04/03 01:14:48;;;;;;;3.63;1.73;;;4.40;99.90;;;;;;4145808;28;20425;-63
2022/04/03 01:16:48;;;;;;;3.83;1.98;;;4.40;99.90;;;;;;4144781;28;20038;-62
2022/04/03 01:18:49;;;;;;;4.28;1.70;;;4.30;99.90;;;;;;4146248;28;20037;-63
2022/04/03 01:20:52;;;;;;;3.70;1.90;;;4.40;99.90;;;;;;4144036;28;20038;-63
2022/04/03 01:22:53;;;;;;;4.03;2.15;;;4.30;99.90;;;;;;4147696;28;20488;-63
2022/04/03 01:24:57;;;;;;;4.53;2.10;;;4.30;99.90;;;;;;4143344;28;20117;-63
2022/04/03 01:26:58;;;;;;;3.78;1.83;;;4.30;99.90;;;;;;4140796;28;20064;-64
2022/04/03 01:28:58;;;;;;;3.50;1.98;;;4.30;99.90;;;;;;4142022;28;20038;-63
2022/04/03 01:30:59;;;;;;;3.83;2.20;;;4.20;99.90;;;;;;4140813;28;20042;-64
2022/04/03 01:33:00;;;;;;;2.13;1.60;;;4.20;99.90;;;;;;4141031;28;20036;-63
2022/04/03 01:35:00;;;;;;;4.18;1.75;;;4.20;99.90;;;;;;4142558;28;20105;-63
2022/04/03 01:37:02;;;;;;;5.07;2.00;;;4.20;99.90;;;;;;4140105;28;20088;-64
2022/04/03 01:39:03;;;;;;;3.88;2.10;;;4.20;99.90;;;;;;4143470;28;20104;-63
2022/04/03 01:41:03;;;;;;;2.67;1.80;;;4.20;99.90;;;;;;4141848;28;20113;-64
2022/04/03 01:43:06;;;;;;;6.57;2.22;;;4.20;99.90;;;;;;4140851;28;20064;-64
2022/04/03 01:45:07;;;;;;;5.13;2.03;;;4.10;99.90;;;;;;4123800;28;20916;-66
2022/04/03 01:47:08;;;;;;;3.47;1.80;;;4.10;99.90;;;;;;4142069;28;20030;-63
2022/04/03 01:49:08;;;;;;;5.05;2.00;;;4.10;99.90;;;;;;4144106;28;20125;-65
2022/04/03 01:51:09;;;;;;;3.15;1.92;;;4.10;99.90;;;;;;4144409;28;20030;-63
2022/04/03 01:53:10;;;;;;;5.78;2.38;;;4.10;99.90;;;;;;4145669;28;20034;-63
2022/04/03 01:55:10;;;;;;;4.03;1.60;;;4.10;99.90;;;;;;4144552;28;20030;-64
2022/04/03 01:57:11;;;;;;;2.92;1.80;;;4.10;99.90;;;;;;4145523;28;20559;-63
2022/04/03 01:59:11;;;;;;;5.25;2.13;;;4.10;99.90;;;;;;4144068;28;20137;-63
2022/04/03 02:01:12;;;;;;;3.10;1.88;;;4.10;99.90;;;;;;4146349;28;20034;-63
2022/04/03 02:03:13;;;;;;;3.80;2.05;;;4.10;99.90;;;;;;4145137;28;20045;-63
2022/04/03 02:05:13;;;;;;;5.90;1.98;;;4.00;99.90;;;;;;4144601;28;20386;-63
2022/04/03 02:07:14;;;;;;;2.88;1.90;;;4.10;99.90;;;;;;4144048;28;20022;-63
2022/04/03 02:09:14;;;;;;;5.18;2.30;;;4.10;99.90;;;;;;4143820;28;20100;-63
2022/04/03 02:11:15;;;;;;;3.15;1.80;;;4.10;99.90;;;;;;4145595;28;20026;-63
2022/04/03 02:13:16;;;;;;;2.47;1.70;;;4.00;99.90;;;;;;4143243;28;20045;-63
2022/04/03 02:15:17;;;;;;;4.40;1.60;;;4.10;99.90;;;;;;4143974;28;20124;-64
2022/04/03 02:17:17;;;;;;;4.50;2.13;;;4.00;99.90;;;;;;4144753;28;20053;-63
2022/04/03 02:19:19;;;;;;;3.03;1.70;;;4.00;99.90;;;;;;4144195;28;20080;-63
2022/04/03 02:21:19;;;;;;;3.63;1.80;;;4.00;99.90;;;;;;4144928;28;20038;-63
2022/04/03 02:23:20;;;;;;;3.40;2.08;;;4.00;99.90;;;;;;4144331;28;20540;-63
2022/04/03 02:25:20;;;;;;;3.17;1.98;;;4.00;99.90;;;;;;4145007;28;23797;-63
2022/04/03 02:27:21;;;;;;;2.60;1.70;;;4.00;99.90;;;;;;4144737;28;20048;-63
2022/04/03 02:29:22;;;;;;;3.42;1.90;;;3.90;99.90;;;;;;4146381;28;20034;-63
2022/04/03 02:31:22;;;;;;;3.45;1.80;;;3.90;99.90;;;;;;4144426;28;20061;-63
2022/04/03 02:33:23;;;;;;;2.65;1.50;;;3.90;99.90;;;;;;4145130;28;20113;-63
2022/04/03 02:35:24;;;;;;;2.65;1.83;;;3.90;99.90;;;;;;4142550;28;20061;-63
2022/04/03 02:37:24;;;;;;;3.08;1.92;;;3.90;99.90;;;;;;4144175;28;20042;-63
2022/04/03 02:39:25;;;;;;;2.90;1.67;;;3.90;99.90;;;;;;4144485;28;20038;-63
2022/04/03 02:41:27;;;;;;;3.35;1.88;;;3.80;99.90;;;;;;4143110;28;20034;-63
2022/04/03 02:43:27;;;;;;;2.75;1.73;;;3.90;99.90;;;;;;4145552;28;20045;-64
2022/04/03 02:45:28;;;;;;;3.85;1.98;;;3.80;99.90;;;;;;4142418;28;20539;-64
2022/04/03 02:47:30;;;;;;;3.55;1.85;;;3.80;99.90;;;;;;4144239;28;20100;-63
2022/04/03 02:49:30;;;;;;;3.40;1.80;;;3.70;99.90;;;;;;4144120;28;20042;-63
2022/04/03 02:51:31;;;;;;;3.72;2.17;;;3.70;99.90;;;;;;4144596;28;20255;-63
2022/04/03 02:53:31;;;;;;;3.08;1.85;;;3.70;99.90;;;;;;4144860;28;20030;-65
2022/04/03 02:55:32;;;;;;;4.25;2.10;;;3.60;99.90;;;;;;4143806;28;20046;-63
2022/04/03 02:57:33;;;;;;;2.75;1.70;;;3.60;99.90;;;;;;4143898;28;20045;-64
2022/04/03 02:59:33;;;;;;;3.03;1.58;;;3.60;99.90;;;;;;4143411;28;20122;-64
2022/04/03 03:01:34;;;;;;;2.38;1.58;;;3.60;99.90;;;;;;4141739;28;20046;-63
2022/04/03 03:03:34;;;;;;;5.00;1.85;;;3.60;99.90;;;;;;4143952;28;20536;-63
2022/04/03 03:05:35;;;;;;;2.63;1.85;;;3.60;99.90;;;;;;4139702;28;20088;-64
2022/04/03 03:07:37;;;;;;;1.88;1.42;;;3.50;99.90;;;;;;4142968;28;20124;-63
2022/04/03 03:09:38;;;;;;;5.30;2.17;;;3.50;99.90;;;;;;4142626;28;20056;-63
2022/04/03 03:11:39;;;;;;;2.00;1.67;;;3.40;99.90;;;;;;4141550;28;20037;-63
2022/04/03 03:13:40;;;;;;;3.50;2.08;;;3.40;99.90;;;;;;4127540;28;20122;-63
2022/04/03 03:15:40;;;;;;;2.92;1.98;;;3.40;99.90;;;;;;4144354;28;20482;-64
2022/04/03 03:17:41;;;;;;;3.42;1.80;;;3.40;99.90;;;;;;4144049;28;20042;-63
2022/04/03 03:19:42;;;;;;;6.93;1.73;;;3.40;99.90;;;;;;4142802;28;20050;-63
2022/04/03 03:21:43;;;;;;;3.70;2.13;;;3.30;99.90;;;;;;4143467;28;20126;-63
2022/04/03 03:23:43;;;;;;;4.40;2.03;;;3.40;99.90;;;;;;4144778;28;20041;-63
2022/04/03 03:25:45;;;;;;;3.55;2.05;;;3.30;99.90;;;;;;4141357;28;20514;-63
2022/04/03 03:27:46;;;;;;;3.17;1.70;;;3.30;99.90;;;;;;4142329;28;20105;-63
2022/04/03 03:29:46;;;;;;;3.90;2.20;;;3.30;99.90;;;;;;4145270;28;20077;-63
2022/04/03 03:31:47;;;;;;;3.75;1.90;;;3.30;99.90;;;;;;4143953;28;20046;-63
2022/04/03 03:33:47;;;;;;;4.18;1.65;;;3.30;99.90;;;;;;4142913;28;20077;-63
2022/04/03 03:35:48;;;;;;;2.97;1.55;;;3.30;99.90;;;;;;4144587;28;20049;-63
2022/04/03 03:37:49;;;;;;;2.88;1.75;;;3.20;99.90;;;;;;4143511;28;20034;-63
2022/04/03 03:39:49;;;;;;;2.65;1.75;;;3.30;99.90;;;;;;4143176;28;20100;-63
2022/04/03 03:41:50;;;;;;;3.00;1.60;;;3.30;99.90;;;;;;4142627;28;20113;-63
2022/04/03 03:43:51;;;;;;;2.92;1.88;;;3.20;99.90;;;;;;4145138;28;20485;-63
2022/04/03 03:45:52;;;;;;;2.97;1.60;;;3.30;99.90;;;;;;4143006;28;20175;-63
2022/04/03 03:47:54;;;;;;;2.05;1.70;;;3.20;99.90;;;;;;4143712;28;20042;-63
2022/04/03 03:49:55;;;;;;;2.78;1.73;;;3.20;99.90;;;;;;4144024;28;20037;-63
2022/04/03 03:51:56;;;;;;;4.25;2.00;;;3.20;99.90;;;;;;4143201;28;20108;-63
2022/04/03 03:53:56;;;;;;;2.83;1.73;;;3.20;99.90;;;;;;4143421;28;20045;-63
2022/04/03 03:55:57;;;;;;;2.80;1.58;;;3.20;99.90;;;;;;4141318;28;20044;-63
2022/04/03 03:57:58;;;;;;;4.22;1.88;;;3.20;99.90;;;;;;4142880;28;20084;-66
2022/04/03 03:59:59;;;;;;;3.97;1.55;;;3.20;99.90;;;;;;4142894;28;20050;-63
2022/04/03 04:02:01;;;;;;;3.42;1.88;;;3.20;99.90;;;;;;4142761;28;20038;-64
2022/04/03 04:04:02;;;;;;;4.95;1.90;;;3.20;99.90;;;;;;4141880;28;20121;-63
2022/04/03 04:06:03;;;;;;;3.85;2.10;;;3.10;99.90;;;;;;4141001;28;20033;-65
2022/04/03 04:08:04;;;;;;;4.78;1.92;;;3.10;99.90;;;;;;4142309;28;20075;-64
2022/04/03 04:10:05;;;;;;;2.47;1.67;;;3.10;99.90;;;;;;4142903;28;20037;-67
2022/04/03 04:12:08;;;;;;;2.78;1.75;;;3.00;99.90;;;;;;4142957;28;20030;-63
2022/04/03 04:14:08;;;;;;;3.67;1.40;;;3.00;99.90;;;;;;4141734;28;20121;-63
2022/04/03 04:16:10;;;;;;;3.63;1.83;;;3.00;99.90;;;;;;4142640;28;20037;-64
2022/04/03 04:18:11;;;;;;;3.25;1.85;;;3.00;99.90;;;;;;4142765;28;20068;-63
2022/04/03 04:20:15;;;;;;;3.75;1.70;;;3.00;99.90;;;;;;4143161;28;20054;-64
2022/04/03 04:22:16;;;;;;;3.25;1.70;;;3.00;99.90;;;;;;4126044;28;20117;-63
2022/04/03 04:24:18;;;;;;;2.35;1.50;;;3.00;99.90;;;;;;4143237;28;20034;-63
2022/04/03 04:26:19;;;;;;;2.90;1.58;;;3.00;99.90;;;;;;4141640;28;20038;-63
2022/04/03 04:28:19;;;;;;;3.47;2.05;;;3.00;99.90;;;;;;4141599;28;20176;-63
2022/04/03 04:30:20;;;;;;;3.13;1.80;;;3.00;99.90;;;;;;4141954;28;20046;-63
2022/04/03 04:32:21;;;;;;;5.18;1.70;;;3.00;99.90;;;;;;4142072;28;20033;-63
2022/04/03 04:34:22;;;;;;;2.47;1.60;;;3.00;99.90;;;;;;4148259;28;20041;-63
2022/04/03 04:36:22;;;;;;;3.10;1.65;;;3.00;99.90;;;;;;4151238;28;20046;-63
2022/04/03 04:38:23;;;;;;;3.03;1.85;;;3.00;99.90;;;;;;4146629;28;20038;-63
2022/04/03 04:40:24;;;;;;;4.38;2.20;;;2.90;99.90;;;;;;4150060;28;20060;-63
2022/04/03 04:42:24;;;;;;;3.83;1.67;;;2.90;99.90;;;;;;4148495;28;20167;-63
2022/04/03 04:44:25;;;;;;;3.40;2.05;;;2.90;99.90;;;;;;4152392;28;20034;-63
2022/04/03 04:46:26;;;;;;;3.50;1.70;;;2.90;99.90;;;;;;4149405;28;20493;-63
2022/04/03 04:48:27;;;;;;;3.38;1.83;;;2.90;99.90;;;;;;4153016;28;20037;-63
2022/04/03 04:50:29;;;;;;;1.55;1.27;;;2.90;99.90;;;;;;4147250;28;20156;-63
2022/04/03 04:52:30;;;;;;;3.42;1.40;;;2.90;99.90;;;;;;4150140;28;20057;-63
2022/04/03 04:54:30;;;;;;;2.30;1.50;;;2.90;99.90;;;;;;4148360;28;20030;-64
2022/04/03 04:56:33;;;;;;;2.05;1.55;;;2.90;99.90;;;;;;4147910;28;20040;-64
2022/04/03 04:58:34;;;;;;;3.38;1.45;;;2.80;99.90;;;;;;4147953;28;20030;-65
2022/04/03 05:00:34;;;;;;;2.22;1.50;;;2.80;99.90;;;;;;4148802;28;20073;-64
2022/04/03 05:02:35;;;;;;;2.67;1.60;;;2.80;99.90;;;;;;4149644;28;20076;-63
2022/04/03 05:04:36;;;;;;;2.80;1.80;;;2.80;99.90;;;;;;4147295;28;20513;-63
2022/04/03 05:06:38;;;;;;;2.85;1.80;;;2.80;99.90;;;;;;4147174;28;20042;-63
2022/04/03 05:08:39;;;;;;;2.17;1.55;;;2.80;99.90;;;;;;4149945;28;20034;-63
2022/04/03 05:10:39;;;;;;;2.15;1.70;;;2.80;99.90;;;;;;4149866;28;20037;-63
2022/04/03 05:12:41;;;;;;;2.65;1.70;;;2.80;99.90;;;;;;4146464;28;20038;-63
2022/04/03 05:14:42;;;;;;;2.88;1.60;;;2.80;99.90;;;;;;4151102;28;20057;-64
2022/04/03 05:16:43;;;;;;;2.67;1.70;;;2.70;99.90;;;;;;4150702;28;20034;-63
2022/04/03 05:18:43;;;;;;;2.92;1.75;;;2.70;99.90;;;;;;4146383;28;20038;-63
2022/04/03 05:20:44;;;;;;;2.15;1.65;;;2.80;99.90;;;;;;4146725;28;20026;-63
2022/04/03 05:22:45;;;;;;;3.03;1.40;;;2.70;99.90;;;;;;4144979;28;20025;-63
2022/04/03 05:24:46;;;;;;;3.13;1.33;;;2.70;99.90;;;;;;4144349;28;20041;-63
2022/04/03 05:26:46;;;;;;;3.33;1.33;;;2.70;99.90;;;;;;4148730;28;20512;-63
2022/04/03 05:28:47;;;;;;;3.58;1.98;;;2.70;99.90;;;;;;4150500;28;20432;-63
2022/04/03 05:30:48;;;;;;;3.75;1.80;;;2.70;99.90;;;;;;4149602;28;20049;-63
2022/04/03 05:32:49;;;;;;;5.18;1.90;;;2.70;99.90;;;;;;4149782;28;20037;-63
2022/04/03 05:34:49;;;;;;;6.22;1.80;;;2.70;99.90;;;;;;4148438;28;20413;-63
2022/04/03 05:36:50;;;;;;;6.30;1.77;;;2.70;99.90;;;;;;4146217;28;20109;-63
2022/04/03 05:38:50;;;;;;;2.75;2.00;;;2.70;99.90;;;;;;4147333;28;20068;-63
2022/04/03 05:40:51;;;;;;;3.03;1.73;;;2.70;99.90;;;;;;4147987;28;20045;-63
2022/04/03 05:42:53;;;;;;;3.17;1.67;;;2.60;99.90;;;;;;4146933;28;20129;-64
2022/04/03 05:44:53;;;;;;;2.63;1.83;;;2.70;99.90;;;;;;4145464;28;20038;-64
2022/04/03 05:46:55;;;;;;;3.90;1.90;;;2.70;99.90;;;;;;4143915;28;20509;-64
2022/04/03 05:48:55;;;;;;;4.68;2.05;;;2.70;99.90;;;;;;4144296;28;20157;-64
2022/04/03 05:50:56;;;;;;;5.95;2.17;;;2.70;99.90;;;;;;4145735;28;20068;-64
2022/04/03 05:52:57;;;;;;;4.53;2.45;;;2.70;99.90;;;;;;4145454;28;20030;-64
2022/04/03 05:54:57;;;;;;;3.72;2.08;;;2.70;99.90;;;;;;4146089;28;20038;-64
2022/04/03 05:56:58;;;;;;;6.55;2.00;;;2.70;99.90;;;;;;4150489;28;20080;-64
2022/04/03 05:58:59;;;;;;;4.55;1.95;;;2.70;99.90;;;;;;4149890;28;20029;-64
2022/04/03 06:00:59;;;;;;;4.35;1.90;;;2.70;99.90;;;;;;4151407;28;20033;-64
2022/04/03 06:03:02;;;;;;;6.25;2.05;;;2.70;99.90;;;;;;4147882;28;20061;-66
2022/04/03 06:05:02;;;;;;;3.72;2.22;;;2.70;99.90;;;;;;4149481;28;20601;-64
2022/04/03 06:07:03;;;;;;;4.22;2.10;;;2.80;99.90;;;;;;4149005;28;20026;-64
2022/04/03 06:09:04;;;;;;;3.60;2.15;;;2.80;99.90;;;;;;4130540;28;20046;-64
2022/04/03 06:11:04;;;;;;;2.80;1.85;;;2.80;99.90;;;;;;4148791;28;20042;-65
2022/04/03 06:13:09;;;;;;;5.03;1.90;;;2.80;99.90;;;;;;4148523;28;20041;-65
2022/04/03 06:15:14;;;;;;;3.20;1.67;;;2.80;99.90;;;;;;4151070;28;20038;-65
2022/04/03 06:17:14;;;;;;;3.45;1.70;;;2.80;99.90;;;;;;4148856;28;20421;-64
2022/04/03 06:19:15;;;;;;;4.88;1.80;;;2.80;99.90;;;;;;4150331;28;20040;-64
2022/04/03 06:21:15;;;;;;;3.67;1.80;;;2.90;99.90;;;;;;4150570;28;20099;-64
2022/04/03 06:23:18;;;;;;;3.70;1.95;;;2.90;99.90;;;;;;4149081;28;20425;-64
2022/04/03 06:25:20;;;;;;;4.07;2.00;;;2.90;99.90;;;;;;4147561;28;20052;-64
2022/04/03 06:27:20;;;;;;;2.25;1.48;;;2.90;99.90;;;;;;4145366;28;20064;-64
2022/04/03 06:29:21;;;;;;;3.83;1.70;;;3.00;99.90;;;;;;4149277;28;20057;-64
2022/04/03 06:31:22;;;;;;;4.47;2.00;;;3.10;99.90;;;;;;4149561;28;20029;-65
2022/04/03 06:33:23;;;;;;;3.33;1.98;;;3.30;99.90;;;;;;4149066;28;20034;-64
2022/04/03 06:35:23;;;;;;;4.60;2.28;;;3.60;99.90;;;;;;4126796;28;20047;-64
2022/04/03 06:37:24;;;;;;;3.67;1.90;;;3.80;99.90;;;;;;4146968;28;22553;-64
2022/04/03 06:39:24;;;;;;;2.47;1.80;;;4.10;99.90;;;;;;4149138;28;20046;-64
2022/04/03 06:41:25;;;;;;;5.45;2.45;;;4.50;99.90;;;;;;4147153;28;20034;-64
2022/04/03 06:43:28;;;;;;;2.88;1.80;;;4.80;99.90;;;;;;4146235;28;20076;-64
2022/04/03 06:45:29;;;;;;;3.97;2.10;;;5.20;99.90;;;;;;4150792;28;20081;-64
2022/04/03 06:47:31;;;;;;;2.42;1.40;;;5.50;99.90;;;;;;4144603;28;20038;-64
2022/04/03 06:49:32;;;;;;;1.95;1.52;;;5.80;99.90;;;;;;4145260;28;20042;-65
2022/04/03 06:51:32;;;;;;;3.13;1.75;;;6.20;99.90;;;;;;4147742;28;20053;-65
2022/04/03 06:53:33;;;;;;;5.80;2.00;;;6.50;99.90;;;;;;4149012;28;20101;-65
2022/04/03 06:55:34;;;;;;;1.95;1.60;;;6.90;99.90;;;;;;4148402;28;20042;-65
2022/04/03 06:57:35;;;;;;;2.42;1.60;;;7.20;99.90;;;;;;4149000;28;20038;-65
2022/04/03 06:59:35;;;;;;;4.55;1.80;;;7.50;99.90;;;;;;4149460;28;20034;-65
2022/04/03 07:01:36;;;;;;;2.40;1.60;;;7.90;99.90;;;;;;4129038;28;20037;-66
2022/04/03 07:03:37;;;;;;;3.33;1.98;;;8.10;99.90;;;;;;4145857;28;20432;-66
2022/04/03 07:05:38;;;;;;;5.00;2.20;;;8.40;99.90;;;;;;4147571;28;20041;-66
2022/04/03 07:07:38;;;;;;;3.75;2.20;;;8.70;99.90;;;;;;4147577;28;20589;-65
2022/04/03 07:09:39;;;;;;;4.80;2.15;;;8.90;99.90;;;;;;4144738;28;20034;-65
2022/04/03 07:11:40;;;;;;;4.82;1.92;;;9.10;99.90;;;;;;4147319;28;20032;-66
2022/04/03 07:13:41;;;;;;;2.50;1.83;;;9.30;99.90;;;;;;4145933;28;20041;-65
2022/04/03 07:15:42;;;;;;;3.72;2.00;;;9.60;99.90;;;;;;4144122;28;20493;-65
2022/04/03 07:17:43;;;;;;;3.65;2.03;;;9.70;99.90;;;;;;4147672;28;20034;-65
2022/04/03 07:19:44;;;;;;;4.03;1.73;;;9.90;99.90;;;;;;4146620;28;20030;-65
2022/04/03 07:21:45;;;;;;;5.10;2.42;;;9.90;99.90;;;;;;4147858;28;20067;-65
2022/04/03 07:23:45;;;;;;;4.45;1.92;;;10.00;99.90;;;;;;4147884;28;20430;-65
2022/04/03 07:25:46;;;;;;;4.18;2.13;;;10.10;98.80;;;;;;4146594;28;20107;-65
2022/04/03 07:27:47;;;;;;;4.03;1.95;;;10.20;98.60;;;;;;4146797;28;20168;-64
2022/04/03 07:29:47;;;;;;;4.05;1.92;;;10.40;98.50;;;;;;4148475;28;20608;-64
2022/04/03 07:31:49;;;;;;;3.55;1.77;;;10.40;98.70;;;;;;4145308;28;20030;-64
2022/04/03 07:33:49;;;;;;;4.35;1.90;;;10.60;99.90;;;;;;4142978;28;20049;-65
2022/04/03 07:35:50;;;;;;;3.72;1.80;;;10.70;97.40;;;;;;4147260;28;20034;-64
2022/04/03 07:37:51;;;;;;;3.60;1.85;;;10.90;97.40;;;;;;4144919;28;20044;-65
2022/04/03 07:39:52;;;;;;;2.95;1.92;;;11.00;97.20;;;;;;4138988;28;20042;-65
2022/04/03 07:41:53;;;;;;;5.03;2.22;;;11.10;97.60;;;;;;4143182;28;20029;-65
2022/04/03 07:43:53;;;;;;;2.80;1.70;;;11.30;97.80;;;;;;4147717;28;20037;-65
2022/04/03 07:45:54;;;;;;;2.83;1.73;;;11.40;98.10;;;;;;4142486;28;20153;-65
2022/04/03 07:47:55;;;;;;;3.78;2.10;;;11.50;98.50;;;;;;4143878;28;22358;-65
2022/04/03 07:49:55;;;;;;;3.80;2.05;;;11.60;97.10;;;;;;4140907;28;20104;-64
2022/04/03 07:51:56;;;;;;;3.60;1.88;;;11.60;97.70;;;;;;4141378;28;20037;-65
2022/04/03 07:54:14;;;;;;;3.25;2.08;;;11.70;96.10;;;;;;4144169;28;20552;-65
2022/04/03 07:56:15;;;;;;;4.45;1.88;;;11.70;94.80;;;;;;4138748;28;20148;-65
2022/04/03 07:58:15;;;;;;;2.13;1.70;;;11.80;97.10;;;;;;4132599;28;20481;-65
2022/04/03 08:00:16;;;;;;;2.58;1.83;;;11.80;94.70;;;;;;4142555;28;20060;-64
2022/04/03 08:02:17;;;;;;;2.63;1.38;;;11.80;95.00;;;;;;4143711;28;20046;-64
2022/04/03 08:04:17;;;;;;;4.00;1.92;;;11.80;92.30;;;;;;4143224;28;20049;-65
2022/04/03 08:06:18;;;;;;;3.20;1.70;;;11.80;95.40;;;;;;4143537;28;20030;-65
2022/04/03 08:08:18;;;;;;;3.80;1.95;;;11.80;93.00;;;;;;4143875;28;20036;-64
2022/04/03 08:10:20;;;;;;;2.67;1.63;;;11.80;95.60;;;;;;4141311;28;20464;-65
2022/04/03 08:12:20;;;;;;;5.95;1.60;;;11.80;95.80;;;;;;4144551;28;20117;-65
2022/04/03 08:14:22;;;;;;;3.80;1.67;;;11.70;92.20;;;;;;4142833;28;20045;-65
2022/04/03 08:16:22;;;;;;;1.88;1.50;;;11.70;92.80;;;;;;4142663;28;20398;-65
2022/04/03 08:18:25;;;;;;;3.38;1.60;;;11.70;94.60;;;;;;4143117;28;20037;-65
2022/04/03 08:20:36;;;;;;;3.60;1.70;;;11.80;91.10;;;;;;4127151;28;20041;-66
2022/04/03 08:22:39;;;;;;;8.00;2.35;;;11.70;91.70;;;;;;4143313;28;20477;-65
2022/04/03 08:24:40;;;;;;;2.13;1.35;;;11.60;92.40;;;;;;4142804;28;20073;-66
2022/04/03 08:26:41;;;;;;;1.75;1.30;;;11.50;90.70;;;;;;4143124;28;20050;-66
2022/04/03 08:28:41;;;;;;;4.30;2.00;;;11.40;89.50;;;;;;4144918;28;20393;-65
2022/04/03 08:30:42;;;;;;;5.47;1.67;;;11.20;91.90;;;;;;4142928;28;20029;-65
2022/04/03 08:32:43;;;;;;;3.58;1.50;;;11.00;89.80;;;;;;4143930;28;20033;-65
2022/04/03 08:34:43;;;;;;;2.80;1.73;;;10.80;91.30;;;;;;4124677;28;20027;-65
2022/04/03 08:36:44;;;;;;;2.70;1.63;;;10.60;93.40;;;;;;4141879;28;20038;-64
2022/04/03 08:38:45;;;;;;;3.03;1.58;;;10.60;94.50;;;;;;4143568;28;20084;-65
2022/04/03 08:40:46;;;;;;;4.53;1.55;;;10.50;92.60;;;;;;4142583;28;20042;-65
2022/04/03 08:42:47;;;;;;;2.38;1.70;;;10.40;90.70;;;;;;4142867;28;20038;-65
2022/04/03 08:44:47;;;;;;;2.78;1.60;;;10.30;92.00;;;;;;4121552;28;20073;-64
2022/04/03 08:46:49;;;;;;;4.75;1.90;;;10.20;92.30;;;;;;4142106;28;20030;-64
2022/04/03 08:48:50;;;;;;;2.78;1.38;;;10.00;92.70;;;;;;4141791;28;20033;-64
2022/04/03 08:50:51;;;;;;;3.08;1.77;;;9.90;93.60;;;;;;4142582;28;20036;-65
2022/04/03 08:52:54;;;;;;;2.47;1.80;;;9.70;93.70;;;;;;4142024;28;20034;-64
2022/04/03 08:54:55;;;;;;;4.97;1.52;;;9.50;93.70;;;;;;4143984;28;20088;-64
2022/04/03 08:56:55;;;;;;;2.40;1.50;;;9.40;93.20;;;;;;4140656;28;20022;-65
2022/04/03 08:58:57;;;;;;;2.90;1.63;;;9.20;94.40;;;;;;4143284;28;20034;-65
2022/04/03 09:00:59;;;;;;;2.05;1.35;;;9.10;93.30;;;;;;4144503;28;20038;-64
2022/04/03 09:03:00;;;;;;;3.85;2.17;;;9.10;95.40;;;;;;4144669;28;20030;-65
2022/04/03 09:05:01;;;;;;;2.85;1.30;;;9.00;95.30;;;;;;4144947;28;20473;-64
2022/04/03 09:07:02;;;;;;;3.03;1.70;;;8.80;95.00;;;;;;4146102;28;20195;-65
2022/04/03 09:09:03;;;;;;;4.03;2.03;;;8.70;95.20;;;;;;4144863;28;20038;-67
2022/04/03 09:11:05;;;;;;;4.30;1.75;;;8.70;97.30;;;;;;4144101;28;20466;-65
2022/04/03 09:13:06;;;;;;;2.00;1.50;;;8.60;97.20;;;;;;4144874;28;20033;-64
2022/04/03 09:15:14;;;;;;;4.30;1.60;;;8.50;96.50;;;;;;4145896;28;20482;-66
2022/04/03 09:17:32;;;;;;;6.40;1.70;;;8.40;97.50;;;;;;4144769;28;20029;-64
2022/04/03 09:19:34;;;;;;;1.70;1.33;;;8.40;98.30;;;;;;4144678;28;20494;-66
2022/04/03 09:21:35;;;;;;;2.15;1.60;;;8.30;98.70;;;;;;4145645;28;20485;-65
2022/04/03 09:24:01;;;;;;;1.52;1.00;;;8.30;98.70;;;;;;4129307;28;20030;-65
2022/04/03 09:26:15;;;;;;;2.47;1.30;;;8.20;98.60;;;;;;4144994;28;20041;-64
2022/04/03 09:28:16;;;;;;;2.78;1.27;;;8.10;98.80;;;;;;4141743;28;20033;-64
2022/04/03 09:30:18;;;;;;;3.17;1.42;;;8.10;99.90;;;;;;4144566;28;20581;-64
2022/04/03 09:32:25;;;;;;;2.38;1.23;;;8.10;99.20;;;;;;4146551;28;20030;-64
2022/04/03 09:34:29;;;;;;;3.97;1.17;;;8.00;99.10;;;;;;4146609;28;20069;-64
2022/04/03 09:36:32;;;;;;;2.15;1.02;;;7.80;99.60;;;;;;4143939;28;20477;-64
2022/04/03 09:38:35;;;;;;;2.25;1.25;;;7.90;99.70;;;;;;4148745;28;20478;-64
2022/04/03 09:40:39;;;;;;;4.03;1.40;;;7.90;99.90;;;;;;4143140;28;20088;-64
2022/04/03 09:42:39;;;;;;;2.10;1.30;;;7.70;99.90;;;;;;4145112;28;20041;-65
2022/04/03 09:44:42;;;;;;;3.15;1.25;;;7.80;99.90;;;;;;4146888;28;20128;-64
2022/04/03 09:46:43;;;;;;;1.90;0.90;;;7.90;99.90;;;;;;4143986;28;20052;-64
2022/04/03 09:48:43;;;;;;;2.03;0.98;;;7.90;99.90;;;;;;4146620;28;20046;-64
2022/04/03 09:50:54;;;;;;;2.20;0.90;;;8.00;99.90;;;;;;4144091;28;20385;-64
2022/04/03 09:52:55;;;;;;;3.20;1.10;;;8.10;99.90;;;;;;4144846;28;20042;-64
2022/04/03 09:54:56;;;;;;;4.07;1.33;;;8.20;99.90;;;;;;4144097;28;20167;-64
2022/04/03 09:57:25;;;;;;;2.40;1.10;;;8.40;99.90;;;;;;4145526;28;20040;-64
2022/04/03 09:59:27;;;;;;;2.35;1.30;;;8.50;99.90;;;;;;4144720;28;20030;-64
2022/04/03 10:01:38;;;;;;;1.92;1.00;;;8.60;99.80;;;;;;4144749;28;20066;-64
2022/04/03 10:03:39;;;;;;;1.88;1.27;;;8.70;99.90;;;;;;4145347;28;20061;-64
2022/04/03 10:05:41;;;;;;;5.43;1.33;;;8.80;99.90;;;;;;4145522;28;20033;-65
2022/04/03 10:07:42;;;;;;;1.55;1.20;;;8.90;99.00;;;;;;4145114;28;20042;-65
2022/04/03 10:09:48;;;;;;;3.65;1.10;;;9.10;99.20;;;;;;4143772;28;20497;-64
2022/04/03 10:11:49;;;;;;;1.35;1.13;;;9.10;98.40;;;;;;4146557;28;20034;-64
2022/04/03 10:13:50;;;;;;;1.63;0.90;;;9.20;99.20;;;;;;4143746;28;20038;-64
2022/04/03 10:15:52;;;;;;;5.93;1.48;;;9.20;98.40;;;;;;4144455;28;20030;-65
2022/04/03 10:17:53;;;;;;;5.33;1.40;;;9.30;96.70;;;;;;4144761;28;20052;-64
2022/04/03 10:19:53;;;;;;;1.85;1.30;;;9.30;96.60;;;;;;4145643;28;20354;-64
2022/04/03 10:21:57;;;;;;;2.40;1.20;;;9.30;99.90;;;;;;4143312;28;20038;-65
2022/04/03 10:24:09;;;;;;;2.35;1.10;;;9.40;98.30;;;;;;4145788;28;20527;-64
2022/04/03 10:26:15;;;;;;;7.38;1.20;;;9.40;96.40;;;;;;4144857;28;20053;-65
2022/04/03 10:28:20;;;;;;;1.42;1.08;;;9.40;94.90;;;;;;4143018;28;20038;-64
2022/04/03 10:30:33;;;;;;;2.38;1.05;;;9.40;94.00;;;;;;4144124;28;20496;-64
2022/04/03 10:32:34;;;;;;;;;;;9.40;96.10;;;;;;4144811;28;20040;-65
2022/04/03 10:34:49;;;;;;;2.17;1.17;;;9.40;96.20;;;;;;4143426;28;19917;-65
2022/04/03 10:36:51;;;;;;;2.28;1.08;;;9.50;98.80;;;;;;4144877;28;20030;-65
2022/04/03 10:39:01;;;;;;;1.73;1.00;;;9.60;96.40;;;;;;4144798;28;20061;-65